Time;durP1;ratioP1;P1;durP2;ratioP2;P2;SDS_P1;SDS_P2;PMS_P1;PMS_P2;Temp;Humidity;BMP_temperature;BMP_pressure;BME280_temperature;BME280_humidity;BME280_pressure;Samples;Min_cycle;Max_cycle;Signal;HPM_P1;HPM_P2
2022/10/05 00:00:55;;;;;;;6.93;3.83;;;15.20;89.10;;;;;;4943144;28;20290;-73
2022/10/05 00:03:23;;;;;;;6.47;4.23;;;15.20;89.00;;;;;;4962101;28;20478;-73
2022/10/05 00:05:49;;;;;;;5.47;3.30;;;15.10;89.00;;;;;;4965391;28;20313;-73
2022/10/05 00:08:17;;;;;;;7.63;4.00;;;15.10;88.80;;;;;;4963061;28;20340;-73
2022/10/05 00:10:44;;;;;;;6.07;3.77;;;15.10;88.70;;;;;;4949347;28;20418;-73
2022/10/05 00:13:21;;;;;;;6.50;3.47;;;15.20;88.70;;;;;;4966228;28;20830;-73
2022/10/05 00:15:47;;;;;;;5.23;3.57;;;15.10;88.80;;;;;;4965792;28;20619;-73
2022/10/05 00:18:16;;;;;;;7.57;3.43;;;15.10;88.90;;;;;;4965296;28;20282;-73
2022/10/05 00:20:42;;;;;;;5.23;3.23;;;15.10;89.10;;;;;;4959293;28;20285;-73
2022/10/05 00:23:16;;;;;;;4.07;3.00;;;15.10;88.90;;;;;;4983467;28;20315;-73
2022/10/05 00:25:42;;;;;;;8.38;3.33;;;15.10;88.90;;;;;;4968428;28;20364;-73
2022/10/05 00:28:28;;;;;;;4.80;3.20;;;15.10;88.80;;;;;;4963644;28;20118;-73
2022/10/05 00:30:58;;;;;;;5.13;2.93;;;15.10;88.90;;;;;;4948289;28;20069;-73
2022/10/05 00:33:26;;;;;;;5.50;3.57;;;15.10;88.90;;;;;;4953414;28;20316;-73
2022/10/05 00:35:52;;;;;;;5.77;2.87;;;15.10;88.90;;;;;;4970281;28;20396;-73
2022/10/05 00:38:18;;;;;;;4.03;2.80;;;15.10;88.80;;;;;;4938385;28;20765;-73
2022/10/05 00:41:08;;;;;;;5.90;2.90;;;15.10;88.70;;;;;;4952315;28;20357;-73
2022/10/05 00:43:49;;;;;;;7.57;3.40;;;15.10;88.80;;;;;;4952109;28;20085;-73
2022/10/05 00:46:15;;;;;;;5.07;2.80;;;15.10;88.80;;;;;;4968929;28;20293;-73
2022/10/05 00:49:06;;;;;;;4.37;2.90;;;15.00;89.00;;;;;;4951120;28;20290;-73
2022/10/05 00:51:37;;;;;;;6.83;3.17;;;15.00;88.80;;;;;;4972237;28;20042;-74
2022/10/05 00:54:44;;;;;;;6.17;3.10;;;15.00;89.00;;;;;;4934252;29;20286;-73
2022/10/05 00:57:28;;;;;;;5.77;2.73;;;15.00;88.80;;;;;;4964110;28;20300;-73
2022/10/05 01:00:07;;;;;;;4.57;2.70;;;15.00;88.80;;;;;;4968198;28;20282;-73
2022/10/05 01:03:02;;;;;;;4.40;3.07;;;15.00;88.90;;;;;;4959492;28;20042;-73
2022/10/05 01:05:57;;;;;;;4.20;3.00;;;14.90;88.80;;;;;;4961432;28;20282;-73
2022/10/05 01:08:38;;;;;;;7.93;3.58;;;14.90;89.10;;;;;;4985150;28;20639;-73
2022/10/05 01:11:19;;;;;;;8.27;3.37;;;14.90;89.10;;;;;;4969431;28;20097;-73
2022/10/05 01:14:00;;;;;;;6.27;3.67;;;14.90;89.30;;;;;;4970283;28;20770;-73
2022/10/05 01:16:48;;;;;;;7.10;3.30;;;14.90;89.40;;;;;;4971091;28;20873;-73
2022/10/05 01:19:32;;;;;;;6.33;4.13;;;14.90;89.50;;;;;;4969837;28;20278;-73
2022/10/05 01:22:41;;;;;;;6.17;4.63;;;14.90;89.60;;;;;;4968145;28;20302;-73
2022/10/05 01:25:18;;;;;;;7.43;4.00;;;14.90;89.60;;;;;;4969459;28;20309;-73
2022/10/05 01:27:57;;;;;;;7.53;4.40;;;14.90;90.00;;;;;;4953545;28;20290;-73
2022/10/05 01:30:23;;;;;;;6.80;4.70;;;14.90;90.10;;;;;;4968525;28;20278;-73
2022/10/05 01:33:21;;;;;;;6.93;5.23;;;14.90;90.60;;;;;;4971279;28;20314;-73
2022/10/05 01:36:16;;;;;;;7.33;4.33;;;14.90;90.50;;;;;;4917619;28;20056;-73
2022/10/05 01:39:01;;;;;;;9.27;4.43;;;14.90;90.60;;;;;;4932558;28;20488;-73
2022/10/05 01:41:47;;;;;;;6.28;4.25;;;14.90;90.60;;;;;;4951637;28;20485;-73
2022/10/05 01:44:20;;;;;;;6.47;5.00;;;14.90;90.40;;;;;;4951041;28;20691;-73
2022/10/05 01:46:49;;;;;;;7.70;4.57;;;14.80;90.70;;;;;;4968854;28;20345;-73
2022/10/05 01:49:23;;;;;;;8.43;4.60;;;14.80;90.80;;;;;;4953437;28;20298;-73
2022/10/05 01:52:07;;;;;;;5.90;4.60;;;14.90;90.80;;;;;;4956164;28;20393;-73
2022/10/05 01:54:49;;;;;;;7.13;4.20;;;14.90;90.70;;;;;;4968144;28;20058;-73
2022/10/05 01:58:10;;;;;;;9.70;4.20;;;14.90;90.70;;;;;;4968004;28;20286;-73
2022/10/05 02:00:47;;;;;;;7.03;4.50;;;14.90;90.40;;;;;;4895426;29;20295;-73
2022/10/05 02:03:19;;;;;;;6.60;3.70;;;15.00;90.40;;;;;;4945268;28;20412;-73
2022/10/05 02:06:00;;;;;;;6.87;3.93;;;15.00;90.30;;;;;;4955070;28;20278;-73
2022/10/05 02:08:35;;;;;;;7.57;3.43;;;15.00;90.30;;;;;;4967267;28;20320;-73
2022/10/05 02:11:09;;;;;;;5.60;3.40;;;15.00;89.80;;;;;;4967629;28;20278;-73
2022/10/05 02:14:08;;;;;;;5.30;3.30;;;15.10;89.40;;;;;;4969193;28;20161;-73
2022/10/05 02:16:42;;;;;;;5.50;2.87;;;15.10;89.20;;;;;;4967910;28;20046;-73
2022/10/05 02:19:40;;;;;;;4.55;3.10;;;15.10;89.20;;;;;;4951145;28;20293;-73
2022/10/05 02:22:22;;;;;;;7.07;3.00;;;15.10;89.00;;;;;;4967824;28;20327;-73
2022/10/05 02:24:56;;;;;;;5.00;3.10;;;15.10;88.70;;;;;;4967710;28;20306;-73
2022/10/05 02:27:28;;;;;;;3.37;2.67;;;15.10;88.90;;;;;;4968436;28;20285;-73
2022/10/05 02:30:00;;;;;;;4.63;2.83;;;15.10;88.80;;;;;;4966581;28;20279;-73
2022/10/05 02:32:31;;;;;;;6.40;3.13;;;15.10;88.90;;;;;;4969554;28;20873;-73
2022/10/05 02:35:11;;;;;;;5.53;2.83;;;15.10;88.80;;;;;;4957310;28;20349;-73
2022/10/05 02:37:42;;;;;;;5.67;2.70;;;15.10;88.70;;;;;;4954480;28;20803;-73
2022/10/05 02:40:23;;;;;;;3.83;2.83;;;15.10;88.90;;;;;;4967230;28;20305;-73
2022/10/05 02:42:55;;;;;;;5.27;2.63;;;15.10;89.10;;;;;;4982187;28;20373;-73
2022/10/05 02:45:35;;;;;;;3.80;2.50;;;15.00;89.30;;;;;;4967325;28;20286;-73
2022/10/05 02:48:13;;;;;;;5.13;1.90;;;15.00;89.20;;;;;;4966520;28;20793;-73
2022/10/05 02:51:20;;;;;;;3.00;1.97;;;15.00;89.10;;;;;;4953955;28;20421;-73
2022/10/05 02:54:15;;;;;;;4.83;2.47;;;15.00;89.00;;;;;;4935669;28;20292;-73
2022/10/05 02:57:09;;;;;;;4.17;1.97;;;15.00;88.60;;;;;;4966464;28;20727;-73
2022/10/05 02:59:42;;;;;;;3.07;2.03;;;15.00;88.70;;;;;;4965817;28;20281;-73
2022/10/05 03:02:22;;;;;;;2.43;1.57;;;15.00;88.40;;;;;;4967299;28;20294;-73
2022/10/05 03:05:02;;;;;;;2.83;1.70;;;15.00;88.00;;;;;;4949391;28;20313;-73
2022/10/05 03:07:54;;;;;;;4.57;2.10;;;15.00;88.30;;;;;;4978515;28;20277;-73
2022/10/05 03:10:26;;;;;;;4.10;2.07;;;15.00;88.10;;;;;;4968817;28;20320;-73
2022/10/05 03:13:04;;;;;;;2.67;1.50;;;15.00;88.30;;;;;;4985250;28;20285;-73
2022/10/05 03:15:42;;;;;;;8.10;2.10;;;15.00;88.30;;;;;;4966954;28;20717;-73
2022/10/05 03:18:07;;;;;;;1.80;1.40;;;15.00;88.10;;;;;;4966934;28;20292;-73
2022/10/05 03:20:59;;;;;;;2.23;1.30;;;15.00;87.80;;;;;;4966862;28;20282;-74
2022/10/05 03:23:48;;;;;;;3.93;1.50;;;15.00;87.80;;;;;;4967395;28;20045;-73
2022/10/05 03:26:27;;;;;;;4.20;1.40;;;15.00;87.30;;;;;;4966936;28;20788;-73
2022/10/05 03:29:00;;;;;;;3.63;1.30;;;15.00;87.60;;;;;;4965937;28;20293;-73
2022/10/05 03:31:44;;;;;;;3.27;1.43;;;15.00;87.50;;;;;;4967621;28;20298;-73
2022/10/05 03:34:22;;;;;;;2.67;1.27;;;15.00;87.40;;;;;;4967300;28;20567;-73
2022/10/05 03:37:10;;;;;;;3.17;1.30;;;14.90;87.20;;;;;;4950997;28;20050;-73
2022/10/05 03:39:45;;;;;;;2.27;1.00;;;15.00;87.20;;;;;;4965006;28;20310;-73
2022/10/05 03:42:29;;;;;;;2.83;1.13;;;15.00;86.80;;;;;;4959969;28;20849;-73
2022/10/05 03:45:35;;;;;;;3.03;1.00;;;15.00;86.80;;;;;;4949288;28;20294;-73
2022/10/05 03:48:10;;;;;;;4.60;1.02;;;15.00;86.80;;;;;;4980061;28;20298;-73
2022/10/05 03:50:58;;;;;;;4.05;1.08;;;15.00;86.70;;;;;;4969940;28;20034;-73
2022/10/05 03:53:46;;;;;;;7.07;1.70;;;15.00;86.00;;;;;;4976572;28;20048;-73
2022/10/05 03:56:34;;;;;;;3.83;1.10;;;15.00;86.00;;;;;;4973069;28;20356;-73
2022/10/05 03:59:10;;;;;;;2.17;1.37;;;15.00;86.00;;;;;;4966226;28;20355;-73
2022/10/05 04:01:46;;;;;;;3.30;1.47;;;15.00;85.80;;;;;;4966888;28;20756;-73
2022/10/05 04:04:22;;;;;;;1.77;1.10;;;15.00;85.60;;;;;;4956119;28;20294;-73
2022/10/05 04:06:49;;;;;;;1.97;1.40;;;15.00;85.80;;;;;;4959492;28;20298;-73
2022/10/05 04:09:31;;;;;;;5.47;1.47;;;14.90;86.00;;;;;;4983829;28;20282;-73
2022/10/05 04:12:23;;;;;;;3.73;1.43;;;14.90;85.90;;;;;;4982463;28;20304;-73
2022/10/05 04:14:56;;;;;;;3.70;1.70;;;15.00;85.90;;;;;;4981956;28;20318;-73
2022/10/05 04:17:33;;;;;;;3.43;1.73;;;14.90;86.00;;;;;;4983451;28;20747;-73
2022/10/05 04:20:06;;;;;;;4.67;2.10;;;15.00;85.90;;;;;;4966018;28;20790;-73
2022/10/05 04:22:45;;;;;;;3.63;2.03;;;15.00;85.70;;;;;;4967364;28;20302;-73
2022/10/05 04:25:20;;;;;;;4.77;2.20;;;15.00;85.70;;;;;;4960147;28;20317;-73
2022/10/05 04:27:51;;;;;;;;;;;15.00;85.90;;;;;;4966864;28;20285;-73
2022/10/05 04:30:19;;;;;;;4.23;2.50;;;15.00;85.70;;;;;;4983879;28;19918;-73
2022/10/05 04:32:57;;;;;;;5.97;2.60;;;15.00;85.90;;;;;;4982394;28;20342;-73
2022/10/05 04:35:53;;;;;;;4.70;2.43;;;14.90;86.00;;;;;;4983346;28;20321;-73
2022/10/05 04:38:22;;;;;;;5.88;2.72;;;14.90;86.00;;;;;;4957442;28;20698;-73
2022/10/05 04:41:02;;;;;;;4.77;3.13;;;14.90;86.20;;;;;;4968429;28;20182;-73
2022/10/05 04:43:56;;;;;;;6.00;2.77;;;14.90;86.10;;;;;;4964138;28;20389;-73
2022/10/05 04:46:35;;;;;;;5.93;2.97;;;14.90;86.30;;;;;;4965207;28;20310;-73
2022/10/05 04:49:28;;;;;;;5.30;2.73;;;14.90;86.40;;;;;;4964315;28;20282;-73
2022/10/05 04:52:05;;;;;;;6.63;3.07;;;14.90;86.30;;;;;;4967669;28;20286;-73
2022/10/05 04:54:51;;;;;;;14.00;3.63;;;14.90;86.50;;;;;;4965236;28;20282;-73
2022/10/05 04:57:42;;;;;;;4.97;3.10;;;14.90;86.40;;;;;;4936709;28;20856;-73
2022/10/05 05:00:24;;;;;;;6.13;2.93;;;14.90;86.30;;;;;;4950322;28;20288;-73
2022/10/05 05:03:28;;;;;;;8.47;3.23;;;14.90;86.10;;;;;;4949285;28;20397;-73
2022/10/05 05:06:28;;;;;;;5.30;3.20;;;14.90;85.90;;;;;;4949468;28;20305;-73
2022/10/05 05:09:13;;;;;;;4.10;3.00;;;14.90;85.40;;;;;;4965403;28;20433;-73
2022/10/05 05:12:11;;;;;;;5.67;2.90;;;14.90;85.40;;;;;;4964332;28;20290;-73
2022/10/05 05:15:06;;;;;;;6.93;3.10;;;14.90;85.50;;;;;;4951740;28;20393;-74
2022/10/05 05:17:45;;;;;;;6.10;2.90;;;14.90;84.80;;;;;;4950378;28;20282;-73
2022/10/05 05:20:26;;;;;;;6.30;3.20;;;14.90;84.80;;;;;;4969669;28;20039;-74
2022/10/05 05:23:04;;;;;;;6.07;3.40;;;14.90;84.50;;;;;;4952599;28;20365;-73
2022/10/05 05:25:42;;;;;;;5.10;3.33;;;14.90;84.80;;;;;;4969653;28;20300;-73
2022/10/05 05:28:35;;;;;;;4.60;3.20;;;14.90;84.90;;;;;;4969178;28;20366;-73
2022/10/05 05:31:36;;;;;;;5.70;3.57;;;14.90;84.90;;;;;;4969029;28;20301;-73
2022/10/05 05:34:40;;;;;;;5.70;3.10;;;14.90;84.80;;;;;;4969297;28;20356;-73
2022/10/05 05:37:32;;;;;;;5.50;3.63;;;14.90;85.00;;;;;;4947779;28;20620;-73
2022/10/05 05:40:15;;;;;;;6.63;3.33;;;14.90;84.90;;;;;;4952863;28;20635;-74
2022/10/05 05:43:08;;;;;;;6.90;3.63;;;14.90;84.90;;;;;;4982697;28;20345;-74
2022/10/05 05:45:59;;;;;;;6.57;3.70;;;14.90;84.60;;;;;;4969689;28;20286;-73
2022/10/05 05:48:46;;;;;;;5.77;4.13;;;14.90;84.50;;;;;;4967375;28;20329;-73
2022/10/05 05:51:33;;;;;;;5.33;3.50;;;14.90;84.70;;;;;;4967488;28;20597;-73
2022/10/05 05:54:05;;;;;;;6.97;3.60;;;14.90;84.80;;;;;;4951886;28;20738;-73
2022/10/05 05:56:38;;;;;;;5.17;3.27;;;14.90;84.70;;;;;;4967662;28;20374;-73
2022/10/05 05:59:49;;;;;;;6.13;3.70;;;14.90;84.90;;;;;;4951599;28;20290;-73
2022/10/05 06:02:22;;;;;;;6.07;3.60;;;14.90;84.90;;;;;;4914588;29;20347;-74
2022/10/05 06:04:56;;;;;;;10.60;3.90;;;14.90;85.30;;;;;;4958400;28;20775;-73
2022/10/05 06:07:26;;;;;;;4.35;3.42;;;14.90;85.30;;;;;;4976059;28;20306;-74
2022/10/05 06:10:02;;;;;;;4.60;3.40;;;14.80;85.30;;;;;;4967912;28;20157;-74
2022/10/05 06:12:36;;;;;;;6.13;3.43;;;14.80;85.50;;;;;;4965467;28;20282;-73
2022/10/05 06:15:37;;;;;;;6.85;3.70;;;14.80;85.50;;;;;;4966784;28;20282;-73
2022/10/05 06:18:10;;;;;;;7.33;4.20;;;14.80;85.20;;;;;;4962554;28;20360;-73
2022/10/05 06:20:45;;;;;;;5.97;3.03;;;14.80;85.30;;;;;;4966876;28;20322;-74
2022/10/05 06:23:34;;;;;;;8.05;3.72;;;14.90;85.20;;;;;;4967071;28;20338;-73
2022/10/05 06:26:15;;;;;;;5.30;3.50;;;14.90;85.00;;;;;;4927002;28;20046;-73
2022/10/05 06:28:41;;;;;;;5.70;3.97;;;14.90;85.20;;;;;;4967232;28;20308;-74
2022/10/05 06:31:16;;;;;;;6.17;3.17;;;14.80;85.00;;;;;;4966240;28;20824;-74
2022/10/05 06:34:19;;;;;;;4.72;3.45;;;14.90;84.90;;;;;;4951134;28;20286;-74
2022/10/05 06:36:50;;;;;;;5.10;3.13;;;14.90;84.70;;;;;;4948017;28;20125;-74
2022/10/05 06:39:37;;;;;;;7.70;3.07;;;15.00;84.70;;;;;;4941634;28;20377;-73
2022/10/05 06:42:44;;;;;;;4.07;2.70;;;15.00;84.40;;;;;;4965097;28;20298;-74
2022/10/05 06:45:17;;;;;;;5.00;2.77;;;15.00;84.50;;;;;;4965648;28;20337;-73
2022/10/05 06:47:55;;;;;;;4.73;2.80;;;15.00;84.60;;;;;;4966597;28;20274;-74
2022/10/05 06:50:44;;;;;;;5.03;2.80;;;15.00;84.70;;;;;;4967676;28;20792;-75
2022/10/05 06:53:10;;;;;;;5.63;2.70;;;14.90;84.80;;;;;;4967134;28;20286;-75
2022/10/05 06:55:55;;;;;;;4.53;2.83;;;15.00;84.70;;;;;;4961913;28;20317;-75
2022/10/05 06:58:53;;;;;;;6.38;2.85;;;15.00;84.70;;;;;;4967441;28;20561;-75
2022/10/05 07:01:24;;;;;;;4.87;2.60;;;15.00;84.70;;;;;;4960149;28;20086;-74
2022/10/05 07:04:08;;;;;;;2.90;2.10;;;15.00;84.60;;;;;;4952133;28;20310;-75
2022/10/05 07:06:43;;;;;;;4.17;1.83;;;15.00;84.60;;;;;;4963538;28;20880;-76
2022/10/05 07:09:31;;;;;;;4.23;2.03;;;15.10;84.40;;;;;;4948206;28;20576;-75
2022/10/05 07:12:06;;;;;;;3.37;2.00;;;15.10;83.60;;;;;;4967283;28;20298;-74
2022/10/05 07:14:49;;;;;;;3.88;2.05;;;15.10;83.70;;;;;;4946914;28;20297;-75
2022/10/05 07:17:30;;;;;;;2.67;1.77;;;15.20;83.30;;;;;;4975019;28;20473;-75
2022/10/05 07:20:19;;;;;;;2.97;1.80;;;15.20;83.30;;;;;;4968938;28;20290;-75
2022/10/05 07:23:18;;;;;;;1.93;1.20;;;15.20;82.80;;;;;;4967950;28;20461;-73
2022/10/05 07:26:24;;;;;;;3.77;1.60;;;15.30;82.80;;;;;;4966438;28;20286;-75
2022/10/05 07:29:22;;;;;;;1.70;1.17;;;15.40;82.40;;;;;;4954986;28;20796;-75
2022/10/05 07:32:11;;;;;;;3.20;1.33;;;15.40;82.20;;;;;;4966415;28;20545;-75
2022/10/05 07:37:52;;;;;;;1.27;0.90;;;15.40;81.50;;;;;;4968919;28;20384;-75
2022/10/05 07:37:58;;;;;;;2.07;0.97;;;15.40;81.60;;;;;;4967177;28;20317;-75
2022/10/05 07:40:30;;;;;;;2.13;0.87;;;15.40;81.10;;;;;;4967999;28;20286;-74
2022/10/05 07:43:02;;;;;;;3.33;0.90;;;15.50;81.20;;;;;;4981993;28;20834;-75
2022/10/05 07:45:58;;;;;;;1.97;0.60;;;15.50;81.20;;;;;;4965918;28;20286;-75
2022/10/05 07:48:44;;;;;;;1.00;0.80;;;15.50;81.00;;;;;;4949381;28;20279;-76
2022/10/05 07:51:35;;;;;;;2.08;0.77;;;15.50;80.70;;;;;;4966309;28;20294;-74
2022/10/05 07:54:06;;;;;;;1.63;0.50;;;15.50;80.30;;;;;;4967232;28;20170;-75
2022/10/05 07:56:39;;;;;;;1.53;0.57;;;15.50;80.50;;;;;;4965356;28;20305;-75
2022/10/05 07:59:28;;;;;;;2.10;0.70;;;15.60;80.20;;;;;;4965230;28;20345;-74
2022/10/05 08:02:04;;;;;;;1.47;0.53;;;15.70;80.20;;;;;;4960815;28;20373;-74
2022/10/05 08:04:39;;;;;;;2.13;0.50;;;15.80;80.10;;;;;;4966602;28;20282;-75
2022/10/05 08:07:11;;;;;;;2.35;0.50;;;15.80;79.80;;;;;;4963384;28;20717;-74
2022/10/05 08:09:44;;;;;;;1.57;0.43;;;15.90;79.00;;;;;;4965996;28;20074;-74
2022/10/05 08:12:32;;;;;;;3.53;0.60;;;15.90;78.70;;;;;;4965888;28;20313;-74
2022/10/05 08:15:19;;;;;;;1.90;0.40;;;16.00;78.80;;;;;;4967056;28;20282;-74
2022/10/05 08:17:53;;;;;;;1.00;0.30;;;16.10;78.80;;;;;;4950299;28;20289;-75
2022/10/05 08:20:45;;;;;;;4.80;0.63;;;16.10;78.60;;;;;;4965488;28;20286;-75
2022/10/05 08:23:35;;;;;;;1.00;0.50;;;16.20;77.90;;;;;;4950745;28;20087;-75
2022/10/05 08:26:24;;;;;;;2.53;0.80;;;16.30;78.50;;;;;;4966622;28;20389;-75
2022/10/05 08:29:11;;;;;;;1.57;0.60;;;16.40;77.80;;;;;;4981312;28;20377;-75
2022/10/05 08:31:39;;;;;;;6.83;0.60;;;16.40;78.00;;;;;;4964370;28;20300;-74
2022/10/05 08:34:30;;;;;;;3.30;0.70;;;16.50;77.70;;;;;;4933570;28;20287;-75
2022/10/05 08:37:04;;;;;;;3.20;0.80;;;16.50;77.80;;;;;;4949637;28;20286;-75
2022/10/05 08:39:39;;;;;;;1.97;0.70;;;16.60;77.50;;;;;;4966489;28;20293;-75
2022/10/05 08:42:17;;;;;;;;;;;16.60;77.50;;;;;;4949426;28;20314;-75
2022/10/05 08:45:01;;;;;;;1.80;1.00;;;16.70;76.80;;;;;;4965705;28;20409;-75
2022/10/05 08:47:58;;;;;;;4.03;0.90;;;16.70;76.90;;;;;;4964878;28;20293;-75
2022/10/05 08:50:34;;;;;;;2.40;0.73;;;16.80;76.60;;;;;;4969472;28;20793;-74
2022/10/05 08:53:27;;;;;;;3.23;1.07;;;16.80;76.60;;;;;;4968752;28;20356;-75
2022/10/05 08:56:12;;;;;;;2.67;1.20;;;16.90;76.30;;;;;;4968694;28;20297;-74
2022/10/05 08:58:40;;;;;;;1.20;0.67;;;16.90;76.70;;;;;;4953172;28;20305;-75
2022/10/05 09:01:14;;;;;;;3.30;0.83;;;16.90;76.50;;;;;;4949761;28;20291;-74
2022/10/05 09:04:07;;;;;;;3.60;0.90;;;17.00;76.00;;;;;;4970472;28;20795;-73
2022/10/05 09:07:05;;;;;;;2.67;1.07;;;17.00;76.10;;;;;;4969073;28;20306;-74
2022/10/05 09:10:05;;;;;;;2.27;0.93;;;17.00;76.00;;;;;;4969456;28;20286;-74
2022/10/05 09:13:12;;;;;;;2.73;1.00;;;17.00;76.40;;;;;;4968978;28;20358;-75
2022/10/05 09:16:12;;;;;;;2.47;0.80;;;17.00;76.10;;;;;;4905455;29;20824;-75
2022/10/05 09:18:56;;;;;;;3.77;1.10;;;17.10;76.20;;;;;;4969661;28;20655;-74
2022/10/05 09:21:54;;;;;;;4.43;1.00;;;17.10;75.60;;;;;;4969734;28;20285;-75
2022/10/05 09:24:25;;;;;;;3.10;1.00;;;17.00;75.60;;;;;;4963525;28;20306;-74
2022/10/05 09:27:02;;;;;;;3.30;1.10;;;17.10;76.30;;;;;;4986222;28;20365;-74
2022/10/05 09:30:13;;;;;;;2.87;1.57;;;17.10;75.90;;;;;;4969694;28;20671;-75
2022/10/05 09:32:51;;;;;;;2.10;1.03;;;17.20;75.80;;;;;;4955032;28;20302;-75
2022/10/05 09:35:43;;;;;;;3.33;1.00;;;17.20;75.70;;;;;;4969939;28;20282;-75
2022/10/05 09:38:37;;;;;;;2.77;1.23;;;17.30;75.60;;;;;;4958585;28;20281;-74
2022/10/05 09:41:20;;;;;;;4.90;1.37;;;17.40;75.20;;;;;;4969937;28;20548;-75
2022/10/05 09:44:28;;;;;;;4.63;1.43;;;17.40;74.60;;;;;;4953555;28;20413;-75
2022/10/05 09:47:35;;;;;;;2.97;1.10;;;17.40;74.10;;;;;;4952192;28;20301;-74
2022/10/05 09:50:13;;;;;;;3.33;1.30;;;17.50;75.00;;;;;;4968046;28;20298;-74
2022/10/05 09:53:12;;;;;;;4.33;1.57;;;17.60;74.70;;;;;;4952613;28;20729;-75
2022/10/05 09:55:56;;;;;;;2.33;1.17;;;17.60;73.90;;;;;;4972573;28;20325;-75
2022/10/05 09:58:27;;;;;;;3.83;1.40;;;17.70;74.10;;;;;;4973881;28;20286;-75
2022/10/05 10:01:09;;;;;;;4.97;1.23;;;17.70;73.80;;;;;;4952589;28;20666;-75
2022/10/05 10:04:29;;;;;;;5.43;1.40;;;17.60;73.40;;;;;;4969546;28;20720;-75
2022/10/05 10:07:15;;;;;;;3.90;1.30;;;17.60;73.20;;;;;;4892798;29;20808;-75
2022/10/05 10:10:06;;;;;;;2.40;1.40;;;17.60;73.90;;;;;;4926312;28;20788;-76
2022/10/05 10:12:46;;;;;;;2.43;1.50;;;17.60;73.20;;;;;;4984738;28;20801;-75
2022/10/05 10:15:42;;;;;;;2.20;1.80;;;17.50;74.00;;;;;;4967908;28;20282;-74
2022/10/05 10:18:36;;;;;;;5.40;1.70;;;17.50;73.70;;;;;;4968594;28;20520;-75
2022/10/05 10:21:28;;;;;;;4.77;1.63;;;17.50;73.70;;;;;;4967753;28;20055;-74
2022/10/05 10:24:03;;;;;;;2.23;1.30;;;17.50;74.00;;;;;;4967267;28;20326;-75
2022/10/05 10:26:55;;;;;;;2.17;1.73;;;17.40;74.50;;;;;;4968398;28;20282;-75
2022/10/05 10:29:38;;;;;;;2.97;1.67;;;17.50;74.90;;;;;;4967208;28;20624;-74
2022/10/05 10:32:11;;;;;;;2.97;2.10;;;17.50;74.60;;;;;;4951896;28;20294;-75
2022/10/05 10:34:58;;;;;;;2.50;1.60;;;17.40;74.90;;;;;;4968662;28;20286;-75
2022/10/05 10:37:36;;;;;;;3.43;1.90;;;17.40;75.10;;;;;;4966435;28;20340;-75
2022/10/05 10:40:33;;;;;;;5.87;2.20;;;17.40;74.60;;;;;;4967501;28;20294;-74
2022/10/05 10:43:29;;;;;;;3.67;1.77;;;17.30;74.70;;;;;;4967965;28;20310;-74
2022/10/05 10:46:09;;;;;;;4.60;1.90;;;17.30;74.90;;;;;;4968329;28;20322;-74
2022/10/05 10:49:22;;;;;;;2.87;2.27;;;17.30;74.90;;;;;;4951575;28;20286;-75
2022/10/05 10:52:16;;;;;;;2.93;1.70;;;17.20;74.80;;;;;;4931607;28;20287;-74
2022/10/05 10:55:05;;;;;;;4.10;2.20;;;17.20;75.40;;;;;;4968329;28;20285;-74
2022/10/05 10:58:07;;;;;;;4.27;2.10;;;17.10;75.50;;;;;;4965423;28;20301;-75
2022/10/05 11:00:46;;;;;;;2.93;2.00;;;17.20;75.30;;;;;;4968399;28;20282;-74
2022/10/05 11:03:40;;;;;;;5.03;2.13;;;17.20;75.40;;;;;;4969172;28;20396;-74
2022/10/05 11:06:28;;;;;;;3.27;1.60;;;17.10;75.50;;;;;;4963741;28;20301;-75
2022/10/05 11:09:02;;;;;;;3.77;1.70;;;17.10;75.60;;;;;;4967223;28;20289;-75
2022/10/05 11:12:02;;;;;;;3.58;1.70;;;17.00;75.70;;;;;;4967785;28;20825;-74
2022/10/05 11:15:15;;;;;;;2.67;1.40;;;16.90;75.60;;;;;;4968091;28;20047;-75
2022/10/05 11:18:07;;;;;;;3.37;1.50;;;16.90;76.00;;;;;;4947059;28;20300;-75
2022/10/05 11:20:57;;;;;;;3.17;1.30;;;16.80;76.20;;;;;;4974799;28;20387;-73
2022/10/05 11:23:53;;;;;;;3.27;1.40;;;16.80;76.30;;;;;;4968886;28;20473;-74
2022/10/05 11:26:56;;;;;;;3.77;1.60;;;16.70;76.90;;;;;;4951999;28;20291;-74
2022/10/05 11:30:07;;;;;;;2.37;1.20;;;16.70;77.00;;;;;;4967428;28;20286;-75
2022/10/05 11:33:00;;;;;;;2.47;1.43;;;16.80;76.70;;;;;;4948686;28;20397;-74
2022/10/05 11:35:25;;;;;;;4.17;1.30;;;16.70;77.30;;;;;;4968468;28;20373;-75
2022/10/05 11:38:13;;;;;;;4.83;1.77;;;16.70;77.30;;;;;;4967312;28;20369;-74
2022/10/05 11:41:08;;;;;;;3.10;1.60;;;16.70;77.50;;;;;;4967577;28;20047;-74
2022/10/05 11:43:52;;;;;;;4.60;1.85;;;16.70;77.30;;;;;;4966455;28;20325;-74
2022/10/05 11:46:39;;;;;;;4.00;1.70;;;16.70;77.10;;;;;;4966685;28;20050;-74
2022/10/05 11:49:22;;;;;;;2.87;1.27;;;16.70;77.40;;;;;;4968190;28;20320;-74
2022/10/05 11:52:06;;;;;;;2.63;1.60;;;16.60;77.60;;;;;;4967544;28;20352;-74
2022/10/05 11:55:01;;;;;;;2.93;1.70;;;16.70;77.80;;;;;;4968002;28;20282;-74
2022/10/05 11:57:36;;;;;;;2.90;1.50;;;16.70;77.30;;;;;;4966273;28;20348;-74
2022/10/05 12:00:22;;;;;;;4.38;1.90;;;16.60;77.40;;;;;;4983594;28;20137;-73
2022/10/05 12:02:57;;;;;;;;;;;16.60;77.50;;;;;;4977571;28;20573;-74
2022/10/05 12:05:41;;;;;;;2.03;1.48;;;16.70;77.40;;;;;;4968472;28;19972;-74
2022/10/05 12:08:41;;;;;;;6.10;1.50;;;16.70;77.30;;;;;;4965971;28;20395;-74
2022/10/05 12:11:25;;;;;;;2.97;1.43;;;16.70;77.30;;;;;;4974568;28;20497;-74
2022/10/05 12:14:01;;;;;;;2.95;1.20;;;16.70;77.20;;;;;;4966179;28;20340;-74
2022/10/05 12:17:00;;;;;;;2.10;1.50;;;16.70;77.60;;;;;;4966018;28;20047;-74
2022/10/05 12:19:55;;;;;;;5.00;1.57;;;16.70;77.40;;;;;;4965995;28;20911;-74
2022/10/05 12:22:29;;;;;;;2.88;1.80;;;16.70;77.50;;;;;;4971369;28;20392;-74
2022/10/05 12:25:20;;;;;;;4.70;1.70;;;16.70;77.60;;;;;;4950989;28;20054;-74
2022/10/05 12:27:50;;;;;;;2.90;1.30;;;16.70;77.40;;;;;;4966434;28;20286;-74
2022/10/05 12:30:31;;;;;;;2.20;1.60;;;16.70;77.50;;;;;;4950589;28;20643;-74
2022/10/05 12:33:33;;;;;;;2.13;1.23;;;16.70;77.40;;;;;;4965884;28;20574;-74
2022/10/05 12:36:18;;;;;;;3.10;1.40;;;16.80;76.70;;;;;;4926849;28;20675;-74
2022/10/05 12:38:57;;;;;;;3.63;1.50;;;16.80;77.00;;;;;;4972944;28;20294;-74
2022/10/05 12:41:40;;;;;;;2.73;1.70;;;16.90;76.50;;;;;;4974740;28;20074;-74
2022/10/05 12:44:36;;;;;;;3.93;1.50;;;17.00;76.60;;;;;;4948300;28;20413;-74
2022/10/05 12:47:22;;;;;;;4.18;1.90;;;17.00;76.40;;;;;;4964509;28;20285;-74
2022/10/05 12:50:29;;;;;;;3.10;2.03;;;17.00;76.60;;;;;;4948834;28;20039;-74
2022/10/05 12:53:08;;;;;;;3.07;2.00;;;17.00;76.20;;;;;;4966374;28;20933;-74
2022/10/05 12:55:46;;;;;;;3.47;2.60;;;17.00;76.40;;;;;;4951630;28;20370;-74
2022/10/05 12:58:37;;;;;;;5.50;2.70;;;17.10;76.30;;;;;;4982949;28;20286;-74
2022/10/05 13:01:19;;;;;;;4.20;2.40;;;17.10;76.40;;;;;;4973555;28;20351;-74
2022/10/05 13:04:05;;;;;;;4.70;2.40;;;17.20;76.40;;;;;;4982588;28;20311;-74
2022/10/05 13:06:43;;;;;;;4.43;2.40;;;17.30;76.00;;;;;;4975507;28;20302;-74
2022/10/05 13:09:23;;;;;;;3.70;2.53;;;17.30;75.80;;;;;;4966996;28;20286;-74
2022/10/05 13:11:54;;;;;;;3.03;2.07;;;17.40;75.40;;;;;;4967697;28;20288;-74
2022/10/05 13:14:45;;;;;;;4.23;2.17;;;17.30;75.60;;;;;;4983586;28;20289;-74
2022/10/05 13:17:23;;;;;;;3.30;2.50;;;17.40;75.20;;;;;;4975633;28;20274;-74
2022/10/05 13:19:57;;;;;;;3.70;2.60;;;17.40;75.90;;;;;;4965516;28;20608;-74
2022/10/05 13:22:38;;;;;;;5.70;2.80;;;17.60;75.60;;;;;;4964462;28;20310;-74
2022/10/05 13:25:13;;;;;;;3.10;2.30;;;17.60;75.50;;;;;;4965305;28;20126;-72
2022/10/05 13:28:01;;;;;;;5.03;3.00;;;17.80;75.10;;;;;;4965251;28;20658;-74
2022/10/05 13:30:27;;;;;;;4.50;2.43;;;17.90;73.80;;;;;;4948959;28;20323;-74
2022/10/05 13:33:13;;;;;;;3.90;2.53;;;18.00;74.10;;;;;;4930806;28;20295;-74
2022/10/05 13:35:45;;;;;;;;;;;18.00;73.80;;;;;;4967310;28;20294;-74
2022/10/05 13:38:33;;;;;;;5.27;2.80;;;18.00;73.20;;;;;;4941688;28;20404;-74
2022/10/05 13:41:18;;;;;;;7.60;3.00;;;17.90;72.80;;;;;;4952484;28;20305;-74
2022/10/05 13:43:59;;;;;;;3.35;2.55;;;17.80;72.90;;;;;;4951707;28;20062;-74
2022/10/05 13:46:52;;;;;;;3.23;2.40;;;17.80;73.50;;;;;;4967586;28;20041;-74
2022/10/05 13:49:33;;;;;;;4.47;2.47;;;17.80;72.70;;;;;;4952069;28;20290;-74
2022/10/05 13:52:07;;;;;;;4.83;2.40;;;17.80;72.70;;;;;;4967840;28;20377;-74
2022/10/05 13:54:44;;;;;;;7.47;2.47;;;17.80;72.80;;;;;;4967576;28;20666;-74
2022/10/05 13:57:26;;;;;;;15.77;2.47;;;17.80;72.80;;;;;;4938625;28;20313;-74
2022/10/05 14:00:16;;;;;;;6.13;2.40;;;17.70;72.90;;;;;;4967536;28;20333;-74
2022/10/05 14:02:46;;;;;;;6.20;2.70;;;17.60;73.40;;;;;;4952021;28;20210;-74
2022/10/05 14:05:17;;;;;;;3.87;2.60;;;17.70;73.40;;;;;;4969256;28;20104;-74
2022/10/05 14:08:02;;;;;;;5.40;2.40;;;17.60;73.30;;;;;;4965052;28;20381;-74
2022/10/05 14:10:41;;;;;;;3.57;2.50;;;17.60;72.80;;;;;;4968171;28;20369;-74
2022/10/05 14:13:21;;;;;;;5.60;2.50;;;17.60;73.30;;;;;;4953538;28;20433;-74